createdAt,value
2022-10-16T00:00:36.786Z,2.07
2022-10-16T00:03:06.181Z,3.20
2022-10-16T00:05:33.501Z,3.00
2022-10-16T00:08:00.073Z,2.30
2022-10-16T00:10:26.669Z,3.97
2022-10-16T00:12:53.200Z,3.87
2022-10-16T00:15:19.840Z,2.20
2022-10-16T00:17:46.434Z,1.77
2022-10-16T00:20:12.990Z,4.40
2022-10-16T00:22:39.549Z,3.13
2022-10-16T00:25:06.293Z,1.87
2022-10-16T00:27:33.605Z,5.60
2022-10-16T00:30:00.442Z,2.00
2022-10-16T00:32:27.898Z,1.97
2022-10-16T00:34:55.594Z,1.60
2022-10-16T00:37:22.385Z,1.40
2022-10-16T00:39:48.916Z,4.10
2022-10-16T00:42:20.053Z,1.40
2022-10-16T00:44:57.764Z,3.17
2022-10-16T00:47:29.633Z,2.97
2022-10-16T00:50:07.298Z,6.53
2022-10-16T00:52:34.870Z,5.03
2022-10-16T00:55:04.173Z,1.47
2022-10-16T00:57:30.725Z,6.50
2022-10-16T00:59:58.588Z,5.33
2022-10-16T01:02:25.488Z,2.83
2022-10-16T01:04:54.109Z,1.40
2022-10-16T01:07:39.260Z,3.73
2022-10-16T01:10:17.777Z,1.37
2022-10-16T01:12:50.529Z,4.47
2022-10-16T01:15:31.922Z,1.33
2022-10-16T01:18:06.421Z,1.40
2022-10-16T01:20:55.085Z,1.83
2022-10-16T01:23:58.825Z,2.77
2022-10-16T01:27:03.048Z,1.20
2022-10-16T01:29:38.689Z,1.90
2022-10-16T01:32:15.709Z,2.00
2022-10-16T01:35:01.651Z,1.87
2022-10-16T01:37:47.590Z,2.90
2022-10-16T01:40:17.927Z,1.60
2022-10-16T01:42:51.107Z,1.70
2022-10-16T01:45:20.149Z,2.43
2022-10-16T01:47:48.668Z,2.00
2022-10-16T01:50:17.686Z,1.43
2022-10-16T01:52:47.581Z,1.30
2022-10-16T01:55:23.321Z,2.37
2022-10-16T01:57:52.652Z,1.50
2022-10-16T02:00:20.997Z,1.23
2022-10-16T02:02:50.710Z,1.97
2022-10-16T02:05:24.451Z,3.57
2022-10-16T02:07:51.110Z,3.30
2022-10-16T02:10:18.415Z,1.53
2022-10-16T02:13:00.438Z,3.13
2022-10-16T02:15:27.165Z,4.77
2022-10-16T02:17:53.697Z,3.23
2022-10-16T02:20:28.848Z,1.60
2022-10-16T02:22:57.437Z,1.50
2022-10-16T02:25:35.592Z,0.93
2022-10-16T02:28:04.424Z,2.23
2022-10-16T02:30:53.174Z,1.87
2022-10-16T02:33:22.857Z,1.47
2022-10-16T02:35:51.739Z,0.80
2022-10-16T02:38:20.054Z,1.10
2022-10-16T02:40:47.061Z,1.80
2022-10-16T02:43:14.197Z,2.87
2022-10-16T02:45:40.893Z,1.40
2022-10-16T02:48:07.572Z,3.00
2022-10-16T02:50:34.165Z,0.93
2022-10-16T02:53:01.233Z,2.47
2022-10-16T02:55:28.689Z,3.07
2022-10-16T02:57:55.934Z,2.90
2022-10-16T03:00:22.567Z,4.30
2022-10-16T03:02:49.131Z,1.00
2022-10-16T03:05:16.279Z,1.60
2022-10-16T03:07:43.001Z,1.17
2022-10-16T03:10:10.118Z,5.03
2022-10-16T03:12:36.664Z,2.87
2022-10-16T03:15:03.769Z,1.53
2022-10-16T03:17:30.472Z,1.63
2022-10-16T03:19:57.025Z,1.43
2022-10-16T03:22:23.545Z,1.40
2022-10-16T03:24:50.088Z,1.57
2022-10-16T03:27:16.670Z,5.10
2022-10-16T03:29:43.240Z,2.37
2022-10-16T03:32:09.802Z,1.70
2022-10-16T03:34:36.368Z,1.40
2022-10-16T03:37:02.941Z,1.47
2022-10-16T03:39:29.489Z,1.30
2022-10-16T03:41:56.021Z,6.20
2022-10-16T03:44:22.661Z,3.83
2022-10-16T03:46:49.244Z,1.53
2022-10-16T03:49:15.853Z,3.90
2022-10-16T03:51:42.432Z,3.03
2022-10-16T03:54:09.005Z,2.07
2022-10-16T03:56:35.763Z,3.77
2022-10-16T03:59:02.335Z,3.00
2022-10-16T04:01:28.938Z,2.97
2022-10-16T04:03:55.543Z,2.87
2022-10-16T04:06:22.129Z,3.73
2022-10-16T04:08:48.649Z,3.63
2022-10-16T04:11:15.194Z,2.40
2022-10-16T04:13:42.434Z,1.60
2022-10-16T04:16:08.974Z,1.80
2022-10-16T04:18:36.158Z,2.57
2022-10-16T04:21:07.338Z,2.07
2022-10-16T04:23:34.501Z,6.00
2022-10-16T04:26:01.394Z,2.53
2022-10-16T04:28:28.347Z,3.33
2022-10-16T04:30:55.122Z,3.03
2022-10-16T04:33:21.659Z,5.73
2022-10-16T04:35:48.229Z,4.17
2022-10-16T04:38:14.900Z,4.50
2022-10-16T04:40:43.447Z,4.20
2022-10-16T04:43:10.226Z,3.00
2022-10-16T04:45:36.970Z,2.90
2022-10-16T04:48:03.673Z,4.53
2022-10-16T04:50:30.262Z,4.90
2022-10-16T04:52:56.833Z,6.77
2022-10-16T04:55:23.493Z,3.53
2022-10-16T04:57:50.478Z,3.30
2022-10-16T05:00:17.032Z,5.43
2022-10-16T05:02:43.632Z,4.60
2022-10-16T05:05:10.314Z,8.70
2022-10-16T05:07:36.861Z,5.83
2022-10-16T05:10:03.646Z,2.97
2022-10-16T05:12:30.212Z,4.57
2022-10-16T05:14:59.480Z,4.73
2022-10-16T05:17:27.327Z,5.67
2022-10-16T05:19:54.117Z,6.27
2022-10-16T05:22:20.772Z,4.90
2022-10-16T05:24:47.384Z,4.43
2022-10-16T05:27:19.688Z,8.00
2022-10-16T05:29:49.935Z,5.20
2022-10-16T05:32:17.953Z,8.07
2022-10-16T05:34:45.056Z,3.40
2022-10-16T05:37:12.609Z,5.00
2022-10-16T05:39:39.558Z,6.43
2022-10-16T05:42:06.972Z,4.80
2022-10-16T05:47:05.417Z,8.23
2022-10-16T05:49:32.055Z,5.10
2022-10-16T05:51:58.699Z,4.50
2022-10-16T05:54:25.303Z,4.70
2022-10-16T05:56:51.844Z,4.60
2022-10-16T05:59:18.485Z,4.43
2022-10-16T06:01:45.092Z,6.37
2022-10-16T06:06:43.427Z,7.27
2022-10-16T06:09:10.337Z,8.60
2022-10-16T06:11:37.617Z,7.00
2022-10-16T06:14:07.655Z,5.97
2022-10-16T06:16:35.748Z,3.87
2022-10-16T06:19:03.236Z,5.83
2022-10-16T06:21:30.388Z,5.20
2022-10-16T06:23:57.829Z,5.03
2022-10-16T06:26:27.100Z,4.53
2022-10-16T06:28:56.281Z,6.47
2022-10-16T06:31:23.477Z,3.60
2022-10-16T06:33:53.185Z,3.83
2022-10-16T06:36:21.376Z,3.93
2022-10-16T06:38:47.909Z,7.60
2022-10-16T06:41:16.807Z,3.67
2022-10-16T06:43:45.054Z,5.23
2022-10-16T06:46:13.491Z,3.33
2022-10-16T06:48:40.049Z,5.17
2022-10-16T06:51:12.403Z,5.70
2022-10-16T06:54:01.693Z,5.03
2022-10-16T06:56:31.561Z,7.70
2022-10-16T06:58:58.130Z,6.50
2022-10-16T07:01:25.667Z,4.30
2022-10-16T07:03:53.125Z,3.43
2022-10-16T07:06:23.704Z,3.03
2022-10-16T07:08:50.897Z,9.80
2022-10-16T07:11:20.416Z,6.43
2022-10-16T07:13:51.021Z,4.00
2022-10-16T07:16:30.001Z,3.53
2022-10-16T07:18:59.884Z,2.80
2022-10-16T07:21:29.734Z,4.87
2022-10-16T07:23:59.230Z,3.13
2022-10-16T07:26:27.021Z,3.37
2022-10-16T07:28:53.703Z,4.70
2022-10-16T07:31:21.694Z,3.13
2022-10-16T07:33:49.156Z,2.97
2022-10-16T07:36:17.279Z,4.13
2022-10-16T07:38:44.558Z,3.13
2022-10-16T07:41:14.334Z,5.63
2022-10-16T07:43:45.777Z,3.10
2022-10-16T07:46:12.348Z,2.47
2022-10-16T07:48:38.997Z,3.03
2022-10-16T07:51:07.397Z,2.10
2022-10-16T07:53:34.390Z,2.43
2022-10-16T07:56:04.921Z,1.60
2022-10-16T07:58:32.506Z,3.57
2022-10-16T08:00:59.508Z,4.20
2022-10-16T08:03:26.596Z,2.22
2022-10-16T08:05:53.389Z,1.50
2022-10-16T08:08:20.102Z,1.57
2022-10-16T08:10:46.981Z,2.90
2022-10-16T08:13:15.970Z,5.18
2022-10-16T08:15:44.090Z,2.15
2022-10-16T08:18:11.994Z,1.60
2022-10-16T08:20:39.293Z,2.67
2022-10-16T08:23:06.542Z,1.30
2022-10-16T08:25:36.399Z,2.03
2022-10-16T08:28:07.183Z,3.77
2022-10-16T08:30:34.449Z,1.93
2022-10-16T08:33:01.665Z,1.23
2022-10-16T08:35:28.353Z,3.20
2022-10-16T08:37:54.992Z,2.80
2022-10-16T08:43:20.042Z,1.30
2022-10-16T08:46:01.953Z,4.13
2022-10-16T08:48:58.942Z,3.40
2022-10-16T08:51:34.238Z,1.60
2022-10-16T08:54:05.270Z,2.00
2022-10-16T08:56:31.858Z,2.60
2022-10-16T08:59:02.156Z,3.03
2022-10-16T09:01:44.841Z,2.20
2022-10-16T09:04:55.632Z,4.97
2022-10-16T09:07:28.888Z,4.17
2022-10-16T09:10:01.938Z,2.70
2022-10-16T09:12:41.184Z,2.30
2022-10-16T09:15:28.913Z,1.90
2022-10-16T09:18:20.566Z,3.97
2022-10-16T09:20:57.594Z,2.90
2022-10-16T09:23:29.605Z,1.17
2022-10-16T09:25:58.056Z,1.03
2022-10-16T09:28:24.739Z,1.47
2022-10-16T09:30:51.966Z,2.33
2022-10-16T09:33:22.028Z,0.90
2022-10-16T09:35:52.441Z,1.77
2022-10-16T09:38:26.752Z,2.33
2022-10-16T09:40:58.786Z,1.42
2022-10-16T09:43:54.461Z,1.75
2022-10-16T09:46:23.221Z,4.97
2022-10-16T09:48:52.144Z,1.00
2022-10-16T09:51:29.340Z,1.45
2022-10-16T09:54:01.733Z,1.05
2022-10-16T09:56:30.267Z,1.15
2022-10-16T09:59:03.537Z,1.77
2022-10-16T10:01:39.200Z,1.70
2022-10-16T10:04:07.145Z,1.27
2022-10-16T10:06:57.227Z,0.88
2022-10-16T10:09:40.272Z,2.95
2022-10-16T10:12:19.682Z,1.77
2022-10-16T10:14:53.969Z,1.60
2022-10-16T10:17:26.425Z,3.40
2022-10-16T10:20:01.632Z,1.50
2022-10-16T10:22:39.191Z,4.07
2022-10-16T10:25:12.033Z,0.82
2022-10-16T10:27:52.036Z,3.13
2022-10-16T10:30:46.505Z,0.80
2022-10-16T10:33:42.073Z,1.30
2022-10-16T10:36:39.513Z,1.48
2022-10-16T10:39:31.321Z,2.58
2022-10-16T10:42:01.371Z,1.60
2022-10-16T10:44:42.762Z,0.75
2022-10-16T10:47:47.488Z,1.92
2022-10-16T10:50:31.773Z,1.85
2022-10-16T10:52:58.277Z,2.90
2022-10-16T10:55:49.240Z,1.88
2022-10-16T10:58:24.184Z,2.35
2022-10-16T11:01:14.293Z,1.02
2022-10-16T11:03:58.140Z,2.92
2022-10-16T11:06:27.603Z,3.38
2022-10-16T11:08:57.551Z,2.33
2022-10-16T11:11:35.729Z,1.52
2022-10-16T11:14:43.739Z,1.67
2022-10-16T11:17:35.110Z,1.55
2022-10-16T11:20:14.476Z,1.92
2022-10-16T11:22:57.427Z,2.53
2022-10-16T11:25:31.165Z,1.52
2022-10-16T11:28:08.788Z,2.58
2022-10-16T11:30:47.236Z,1.50
2022-10-16T11:33:19.582Z,1.70
2022-10-16T11:36:09.440Z,4.78
2022-10-16T11:38:55.716Z,3.22
2022-10-16T11:41:30.714Z,1.55
2022-10-16T11:44:20.625Z,2.85
2022-10-16T11:50:05.635Z,3.87
2022-10-16T11:52:41.288Z,4.23
2022-10-16T11:55:21.867Z,1.90
2022-10-16T11:58:04.176Z,4.03
2022-10-16T12:01:00.636Z,4.18
2022-10-16T12:04:04.549Z,2.08
2022-10-16T12:06:43.062Z,1.35
2022-10-16T12:09:21.270Z,4.50
2022-10-16T12:11:48.217Z,0.93
2022-10-16T12:14:14.717Z,3.30
2022-10-16T12:16:53.732Z,4.90
2022-10-16T12:19:21.814Z,1.13
2022-10-16T12:21:50.153Z,2.08
2022-10-16T12:24:38.622Z,3.45
2022-10-16T12:27:07.874Z,2.08
2022-10-16T12:29:38.973Z,1.98
2022-10-16T12:32:41.948Z,1.38
2022-10-16T12:35:23.902Z,4.15
2022-10-16T12:37:51.045Z,4.32
2022-10-16T12:40:30.505Z,2.08
2022-10-16T12:42:57.346Z,4.03
2022-10-16T12:45:33.292Z,2.95
2022-10-16T12:48:02.630Z,4.20
2022-10-16T12:50:40.225Z,2.15
2022-10-16T12:53:24.917Z,1.17
2022-10-16T12:56:25.025Z,2.55
2022-10-16T12:59:12.346Z,1.85
2022-10-16T13:02:03.788Z,4.22
2022-10-16T13:04:36.509Z,2.20
2022-10-16T13:07:29.753Z,2.78
2022-10-16T13:10:24.953Z,2.45
2022-10-16T13:12:54.245Z,2.40
2022-10-16T13:15:36.277Z,3.58
2022-10-16T13:18:23.008Z,4.30
2022-10-16T13:21:12.966Z,1.30
2022-10-16T13:23:45.462Z,2.45
2022-10-16T13:26:48.750Z,4.30
2022-10-16T13:29:15.591Z,6.38
2022-10-16T13:31:45.123Z,5.10
2022-10-16T13:34:18.773Z,2.40
2022-10-16T13:36:53.493Z,2.15
2022-10-16T13:39:31.305Z,1.27
2022-10-16T13:42:11.022Z,4.70
2022-10-16T13:44:50.576Z,5.47
2022-10-16T13:47:29.181Z,2.80
2022-10-16T13:50:11.992Z,1.73
2022-10-16T13:52:39.059Z,2.17
2022-10-16T13:55:13.042Z,3.83
2022-10-16T13:57:39.854Z,2.67
2022-10-16T14:00:25.510Z,4.50
2022-10-16T14:02:58.427Z,3.13
2022-10-16T14:05:25.204Z,2.55
2022-10-16T14:07:53.790Z,1.13
2022-10-16T14:10:39.523Z,2.72
2022-10-16T14:13:07.903Z,2.55
2022-10-16T14:15:37.046Z,2.53
2022-10-16T14:18:04.592Z,3.08
2022-10-16T14:20:33.970Z,5.68
2022-10-16T14:23:06.046Z,2.08
2022-10-16T14:25:33.715Z,1.33
2022-10-16T14:30:36.281Z,1.98
2022-10-16T14:33:07.301Z,3.17
2022-10-16T14:35:36.403Z,1.35
2022-10-16T14:38:05.171Z,2.67
2022-10-16T14:40:34.677Z,1.13
2022-10-16T14:43:03.101Z,3.55
2022-10-16T14:45:32.107Z,3.67
2022-10-16T14:48:01.611Z,4.47
2022-10-16T14:50:28.518Z,1.77
2022-10-16T14:52:55.601Z,1.53
2022-10-16T14:55:22.297Z,2.13
2022-10-16T14:57:49.041Z,2.03
2022-10-16T15:00:17.941Z,4.70
2022-10-16T15:02:44.967Z,3.00
2022-10-16T15:05:15.313Z,3.20
2022-10-16T15:07:42.654Z,1.60
2022-10-16T15:10:09.466Z,2.60
2022-10-16T15:12:36.203Z,2.07
2022-10-16T15:15:03.194Z,2.80
2022-10-16T15:17:30.112Z,4.10
2022-10-16T15:19:56.770Z,2.17
2022-10-16T15:22:24.299Z,3.17
2022-10-16T15:24:50.837Z,2.87
2022-10-16T15:27:17.384Z,5.70
2022-10-16T15:29:44.104Z,1.67
2022-10-16T15:32:11.618Z,3.13
2022-10-16T15:34:38.153Z,1.60
2022-10-16T15:37:05.050Z,5.63
2022-10-16T15:39:31.581Z,1.80
2022-10-16T15:41:58.170Z,1.90
2022-10-16T15:44:26.996Z,4.03
2022-10-16T15:46:56.242Z,3.70
2022-10-16T15:49:22.849Z,2.60
2022-10-16T15:51:49.438Z,3.37
2022-10-16T15:54:16.120Z,4.70
2022-10-16T15:56:42.671Z,2.37
2022-10-16T15:59:09.288Z,1.43
2022-10-16T16:01:36.759Z,5.57
2022-10-16T16:04:10.971Z,2.10
2022-10-16T16:06:45.500Z,4.03
2022-10-16T16:09:14.346Z,2.27
2022-10-16T16:11:40.943Z,1.53
2022-10-16T16:14:08.281Z,3.73
2022-10-16T16:16:38.312Z,5.50
2022-10-16T16:19:11.586Z,2.50
2022-10-16T16:21:39.122Z,3.17
2022-10-16T16:24:08.788Z,3.07
2022-10-16T16:26:38.422Z,2.90
2022-10-16T16:29:05.199Z,2.43
2022-10-16T16:31:33.221Z,2.20
2022-10-16T16:33:59.796Z,2.77
2022-10-16T16:36:26.859Z,4.47
2022-10-16T16:38:53.447Z,7.47
2022-10-16T16:41:22.413Z,5.47
2022-10-16T16:43:51.962Z,6.85
2022-10-16T16:46:19.673Z,3.90
2022-10-16T16:48:47.105Z,3.90
2022-10-16T16:51:18.505Z,4.47
2022-10-16T16:53:47.142Z,4.33
2022-10-16T16:56:14.701Z,5.97
2022-10-16T16:58:41.869Z,6.00
2022-10-16T17:01:26.249Z,2.90
2022-10-16T17:03:55.237Z,4.27
2022-10-16T17:06:27.286Z,2.73
2022-10-16T17:08:54.125Z,3.10
2022-10-16T17:11:23.539Z,4.47
2022-10-16T17:13:53.911Z,3.90
2022-10-16T17:16:26.697Z,3.80
2022-10-16T17:18:54.027Z,3.23
2022-10-16T17:21:20.922Z,5.70
2022-10-16T17:23:47.491Z,4.00
2022-10-16T17:26:16.700Z,5.03
2022-10-16T17:28:44.521Z,3.27
2022-10-16T17:31:18.558Z,3.60
2022-10-16T17:33:45.711Z,3.50
2022-10-16T17:36:14.526Z,3.30
2022-10-16T17:38:41.932Z,3.20
2022-10-16T17:41:15.385Z,4.07
2022-10-16T17:43:42.637Z,4.47
2022-10-16T17:46:10.344Z,3.23
2022-10-16T17:48:45.359Z,7.93
2022-10-16T17:51:15.304Z,3.53
2022-10-16T17:53:42.778Z,4.50
2022-10-16T17:56:12.482Z,5.20
2022-10-16T17:58:40.053Z,3.37
2022-10-16T18:01:18.759Z,5.87
2022-10-16T18:03:49.594Z,5.03
2022-10-16T18:06:21.855Z,6.27
2022-10-16T18:08:50.595Z,5.47
2022-10-16T18:11:17.184Z,5.53
2022-10-16T18:13:44.453Z,7.03
2022-10-16T18:16:13.018Z,4.50
2022-10-16T18:18:41.304Z,7.20
2022-10-16T18:21:10.913Z,5.43
2022-10-16T18:23:38.071Z,6.10
2022-10-16T18:26:06.245Z,5.13
2022-10-16T18:28:33.103Z,4.30
2022-10-16T18:31:05.513Z,4.73
2022-10-16T18:33:32.756Z,5.53
2022-10-16T18:36:04.692Z,8.17
2022-10-16T18:38:32.466Z,6.50
2022-10-16T18:41:01.794Z,7.77
2022-10-16T18:43:30.465Z,6.50
2022-10-16T18:45:59.669Z,6.00
2022-10-16T18:48:27.090Z,8.37
2022-10-16T18:50:54.181Z,5.30
2022-10-16T18:53:20.922Z,8.97
2022-10-16T18:55:53.833Z,8.43
2022-10-16T18:58:20.642Z,7.93
2022-10-16T19:00:47.280Z,6.63
2022-10-16T19:03:13.868Z,9.93
2022-10-16T19:05:40.472Z,9.50
2022-10-16T19:08:07.049Z,10.33
2022-10-16T19:10:37.068Z,8.50
2022-10-16T19:13:07.524Z,9.37
2022-10-16T19:15:44.397Z,9.13
2022-10-16T19:18:11.176Z,9.17
2022-10-16T19:20:37.712Z,8.30
2022-10-16T19:23:04.379Z,7.70
2022-10-16T19:25:31.138Z,7.10
2022-10-16T19:27:57.778Z,8.07
2022-10-16T19:30:25.238Z,11.60
2022-10-16T19:32:52.887Z,7.60
2022-10-16T19:35:19.713Z,7.23
2022-10-16T19:37:50.772Z,10.33
2022-10-16T19:40:17.416Z,7.67
2022-10-16T19:42:45.184Z,11.67
2022-10-16T19:45:12.226Z,6.63
2022-10-16T19:47:38.853Z,7.37
2022-10-16T19:50:06.592Z,8.03
2022-10-16T19:52:33.433Z,7.27
2022-10-16T19:54:59.994Z,7.53
2022-10-16T19:57:26.825Z,6.33
2022-10-16T19:59:54.382Z,7.10
2022-10-16T20:02:21.517Z,4.53
2022-10-16T20:04:48.049Z,4.30
2022-10-16T20:07:15.845Z,5.07
2022-10-16T20:09:42.388Z,6.63
2022-10-16T20:12:09.077Z,6.60
2022-10-16T20:14:35.710Z,5.43
2022-10-16T20:17:02.293Z,6.43
2022-10-16T20:19:28.893Z,7.80
2022-10-16T20:21:55.749Z,9.13
2022-10-16T20:24:22.354Z,9.03
2022-10-16T20:26:49.876Z,7.43
2022-10-16T20:29:16.672Z,4.93
2022-10-16T20:31:43.280Z,4.90
2022-10-16T20:34:11.891Z,4.07
2022-10-16T20:36:40.257Z,5.67
2022-10-16T20:39:07.761Z,6.40
2022-10-16T20:41:35.771Z,6.57
2022-10-16T20:44:03.603Z,4.07
2022-10-16T20:46:30.386Z,5.70
2022-10-16T20:49:06.062Z,4.53
2022-10-16T20:51:43.873Z,4.40
2022-10-16T20:54:11.024Z,4.63
2022-10-16T20:56:37.689Z,4.63
2022-10-16T20:59:05.455Z,7.50
2022-10-16T21:01:32.199Z,5.40
2022-10-16T21:04:01.722Z,5.33
2022-10-16T21:06:29.062Z,4.93
2022-10-16T21:08:55.862Z,7.03
2022-10-16T21:11:25.189Z,4.80
2022-10-16T21:13:54.201Z,6.00
2022-10-16T21:16:21.682Z,5.00
2022-10-16T21:18:48.855Z,5.07
2022-10-16T21:21:30.544Z,3.97
2022-10-16T21:23:58.455Z,5.37
2022-10-16T21:26:26.305Z,3.37
2022-10-16T21:28:56.153Z,10.20
2022-10-16T21:31:23.437Z,4.33
2022-10-16T21:33:50.972Z,3.37
2022-10-16T21:36:23.492Z,4.87
2022-10-16T21:38:50.604Z,4.23
2022-10-16T21:41:26.429Z,4.10
2022-10-16T21:43:53.764Z,6.07
2022-10-16T21:46:22.064Z,4.13
2022-10-16T21:48:48.963Z,4.63
2022-10-16T21:51:15.892Z,3.40
2022-10-16T21:53:42.454Z,5.50
2022-10-16T21:56:14.481Z,2.97
2022-10-16T21:58:41.100Z,6.23
2022-10-16T22:01:13.908Z,6.40
2022-10-16T22:03:40.587Z,4.90
2022-10-16T22:06:09.603Z,2.97
2022-10-16T22:08:38.197Z,3.57
2022-10-16T22:11:23.221Z,3.40
2022-10-16T22:13:56.434Z,4.97
2022-10-16T22:16:25.297Z,3.37
2022-10-16T22:18:56.492Z,4.47
2022-10-16T22:21:24.000Z,3.00
2022-10-16T22:23:51.406Z,4.33
2022-10-16T22:26:18.085Z,7.03
2022-10-16T22:28:44.714Z,2.53
2022-10-16T22:31:13.812Z,3.90
2022-10-16T22:33:43.083Z,4.67
2022-10-16T22:36:12.538Z,6.57
2022-10-16T22:38:39.276Z,4.63
2022-10-16T22:41:08.123Z,5.17
2022-10-16T22:43:40.016Z,4.83
2022-10-16T22:46:08.365Z,7.70
2022-10-16T22:48:35.962Z,3.43
2022-10-16T22:51:03.783Z,4.73
2022-10-16T22:53:30.589Z,6.27
2022-10-16T22:55:57.438Z,3.80
2022-10-16T22:58:24.170Z,5.43
2022-10-16T23:00:50.772Z,3.47
2022-10-16T23:03:18.162Z,3.40
2022-10-16T23:05:44.789Z,3.30
2022-10-16T23:08:12.401Z,3.57
2022-10-16T23:10:40.028Z,2.97
2022-10-16T23:13:06.742Z,6.90
2022-10-16T23:15:33.374Z,3.83
2022-10-16T23:18:00.010Z,4.90
2022-10-16T23:20:26.600Z,5.33
2022-10-16T23:22:53.221Z,3.40
2022-10-16T23:25:19.804Z,6.27
2022-10-16T23:27:46.528Z,6.50
2022-10-16T23:30:13.116Z,7.97
2022-10-16T23:32:41.166Z,5.23
2022-10-16T23:35:08.397Z,4.37
2022-10-16T23:37:35.239Z,4.00
2022-10-16T23:40:01.770Z,4.30
2022-10-16T23:42:28.588Z,5.50
2022-10-16T23:44:55.337Z,5.03
2022-10-16T23:47:21.886Z,7.43
2022-10-16T23:49:48.421Z,6.50
2022-10-16T23:52:14.966Z,4.33
2022-10-16T23:54:41.568Z,3.03
2022-10-16T23:57:08.149Z,5.30
2022-10-16T23:59:34.689Z,7.03
